Time;durP1;ratioP1;P1;durP2;ratioP2;P2;SDS_P1;SDS_P2;PMS_P1;PMS_P2;Temp;Humidity;BMP_temperature;BMP_pressure;BME280_temperature;BME280_humidity;BME280_pressure;Samples;Min_cycle;Max_cycle;Signal;HPM_P1;HPM_P2
2023/09/21 00:02:14;;;;;;;10.23;2.90;;;537.90;2406.40;;;;;;4805095;29;20133;-86
2023/09/21 00:04:40;;;;;;;8.35;2.83;;;538.00;2406.40;;;;;;4806456;29;20026;-84
2023/09/21 00:07:44;;;;;;;8.23;3.00;;;538.40;2406.40;;;;;;4806681;29;20472;-81
2023/09/21 00:10:09;;;;;;;10.00;3.33;;;538.10;2406.40;;;;;;4805606;29;20038;-80
2023/09/21 00:12:35;;;;;;;6.93;2.95;;;538.00;2406.40;;;;;;4818551;29;20121;-79
2023/09/21 00:15:06;;;;;;;5.82;2.78;;;538.00;2406.40;;;;;;4801126;29;20047;-82
2023/09/21 00:17:41;;;;;;;5.07;2.50;;;538.00;2406.40;;;;;;4804041;29;20053;-82
2023/09/21 00:20:51;;;;;;;6.28;2.40;;;538.00;2406.40;;;;;;4804433;29;20040;-82
2023/09/21 00:23:16;;;;;;;4.18;2.10;;;538.00;2406.40;;;;;;4805146;29;20039;-82
2023/09/21 00:25:44;;;;;;;6.13;2.60;;;537.90;2406.40;;;;;;4805541;29;20026;-82
2023/09/21 00:28:14;;;;;;;5.10;2.65;;;537.90;2406.40;;;;;;4805374;29;20466;-80
2023/09/21 00:30:41;;;;;;;4.32;2.53;;;537.90;2406.40;;;;;;4804786;29;20061;-84
2023/09/21 00:33:08;;;;;;;8.65;2.85;;;537.90;2406.40;;;;;;4803702;29;20055;-82
2023/09/21 00:35:39;;;;;;;7.10;2.67;;;537.90;2406.40;;;;;;4805010;29;20030;-80
2023/09/21 00:38:09;;;;;;;4.90;2.65;;;537.90;2406.40;;;;;;4803781;29;20080;-79
2023/09/21 00:40:39;;;;;;;6.65;2.97;;;538.00;2406.40;;;;;;4799876;29;20046;-81
2023/09/21 00:43:12;;;;;;;9.30;3.00;;;538.10;2406.40;;;;;;4803228;29;20035;-85
2023/09/21 00:45:42;;;;;;;6.65;2.92;;;538.00;2406.40;;;;;;4804457;29;20063;-83
2023/09/21 00:48:20;;;;;;;7.10;2.75;;;537.70;2406.40;;;;;;4803599;29;20039;-83
2023/09/21 00:50:47;;;;;;;7.90;3.15;;;512.50;2380.80;;;;;;4804762;29;20572;-84
2023/09/21 00:53:15;;;;;;;5.90;3.25;;;512.50;2380.80;;;;;;4806208;29;20459;-84
2023/09/21 00:55:45;;;;;;;6.68;3.03;;;512.30;2380.80;;;;;;4805628;29;20037;-82
2023/09/21 00:58:12;;;;;;;6.97;3.25;;;512.10;2380.80;;;;;;4805637;29;20041;-84
2023/09/21 01:00:39;;;;;;;6.75;3.15;;;512.00;2380.80;;;;;;4806831;29;20081;-84
2023/09/21 01:03:07;;;;;;;9.73;3.78;;;512.10;2380.80;;;;;;4805172;29;20065;-87
2023/09/21 01:05:34;;;;;;;9.98;3.50;;;487.30;2380.80;;;;;;4790143;29;20035;-87
2023/09/21 01:08:01;;;;;;;9.00;3.67;;;;;;;;;;4800485;29;20077;-85
2023/09/21 01:10:28;;;;;;;12.32;3.25;;;;;;;;;;4794564;29;20026;-83
2023/09/21 01:12:54;;;;;;;5.78;3.42;;;;;;;;;;4805002;29;20031;-85
2023/09/21 01:15:21;;;;;;;7.78;3.45;;;;;;;;;;4793896;29;20077;-84
2023/09/21 01:17:47;;;;;;;8.13;3.47;;;487.10;2380.80;;;;;;4807304;29;20108;-87
2023/09/21 01:26:20;;;;;;;5.90;3.28;;;487.10;2380.80;;;;;;4793255;30;20042;-87
2023/09/21 01:28:47;;;;;;;7.38;3.08;;;487.20;2380.80;;;;;;4793613;29;20395;-88
2023/09/21 01:31:13;;;;;;;6.45;3.03;;;;;;;;;;4808995;29;20539;-81
2023/09/21 01:33:41;;;;;;;7.07;3.03;;;;;;;;;;4807718;29;20058;-81
2023/09/21 01:36:26;;;;;;;5.65;3.00;;;;;;;;;;4806428;29;20199;-82
2023/09/21 01:38:52;;;;;;;6.07;2.88;;;;;;;;;;4805815;29;20057;-81
2023/09/21 01:41:19;;;;;;;6.50;3.17;;;;;;;;;;4804548;29;20363;-85
2023/09/21 01:43:45;;;;;;;7.55;3.22;;;;;;;;;;4805643;29;20026;-85
2023/09/21 01:46:12;;;;;;;6.75;3.45;;;;;;;;;;4800822;29;20043;-85
2023/09/21 01:48:38;;;;;;;8.20;3.60;;;;;;;;;;4809257;29;20027;-83
2023/09/21 01:51:23;;;;;;;8.80;3.58;;;;;;;;;;4794736;29;20043;-84
2023/09/21 01:53:49;;;;;;;10.65;3.70;;;;;;;;;;4792023;29;20027;-83
2023/09/21 01:56:15;;;;;;;6.05;3.55;;;;;;;;;;4806217;29;20039;-83
2023/09/21 01:58:41;;;;;;;9.02;3.75;;;;;;;;;;4808905;29;20038;-84
2023/09/21 02:01:08;;;;;;;6.32;3.28;;;;;;;;;;4799030;29;20042;-85
2023/09/21 02:03:34;;;;;;;6.07;3.33;;;;;;;;;;4807121;29;20042;-83
2023/09/21 02:09:37;;;;;;;6.07;3.28;;;;;;;;;;4807003;29;20073;-84
2023/09/21 02:12:03;;;;;;;6.63;3.55;;;;;;;;;;4797593;29;20043;-82
2023/09/21 02:14:29;;;;;;;8.32;3.40;;;;;;;;;;4797141;29;20549;-83
2023/09/21 02:16:55;;;;;;;8.68;3.50;;;;;;;;;;4799970;29;20129;-84
2023/09/21 02:19:21;;;;;;;5.68;3.45;;;;;;;;;;4793035;29;20035;-84
2023/09/21 02:21:49;;;;;;;8.63;3.60;;;;;;;;;;4807539;29;20115;-83
2023/09/21 02:24:16;;;;;;;7.15;3.60;;;;;;;;;;4806543;29;20103;-83
2023/09/21 02:26:42;;;;;;;8.65;3.80;;;;;;;;;;4809254;29;20489;-82
2023/09/21 02:29:12;;;;;;;7.43;3.58;;;;;;;;;;4810267;29;20034;-83
2023/09/21 02:31:42;;;;;;;7.05;3.42;;;;;;;;;;4808025;29;20071;-84
2023/09/21 02:34:09;;;;;;;8.27;3.83;;;;;;;;;;4810082;29;20057;-83
2023/09/21 02:36:35;;;;;;;7.70;3.60;;;;;;;;;;4808228;29;20041;-82
2023/09/21 02:39:01;;;;;;;6.85;3.70;;;;;;;;;;4810241;29;20043;-84
2023/09/21 02:41:27;;;;;;;8.18;3.33;;;;;;;;;;4808556;29;20050;-83
2023/09/21 02:43:54;;;;;;;5.93;3.50;;;;;;;;;;4809638;29;20030;-82
2023/09/21 02:46:20;;;;;;;8.93;3.42;;;;;;;;;;4809247;29;20034;-83
2023/09/21 02:48:46;;;;;;;6.60;3.65;;;;;;;;;;4803265;29;20031;-83
2023/09/21 02:51:12;;;;;;;7.57;3.40;;;;;;;;;;4807658;29;20103;-82
2023/09/21 02:53:38;;;;;;;7.90;3.60;;;;;;;;;;4809930;29;20102;-83
2023/09/21 02:56:05;;;;;;;6.65;3.75;;;;;;;;;;4808710;29;20050;-84
2023/09/21 02:58:33;;;;;;;8.60;3.60;;;;;;;;;;4809700;29;20058;-82
2023/09/21 03:00:59;;;;;;;7.53;3.63;;;;;;;;;;4807769;29;20479;-83
2023/09/21 03:03:27;;;;;;;6.35;3.42;;;;;;;;;;4809216;29;20041;-84
2023/09/21 03:05:54;;;;;;;9.02;3.53;;;;;;;;;;4807072;29;20046;-82
2023/09/21 03:08:22;;;;;;;8.32;3.30;;;;;;;;;;4803797;29;20035;-81
2023/09/21 03:10:55;;;;;;;7.25;3.38;;;;;;;;;;4791266;30;20035;-82
2023/09/21 03:13:22;;;;;;;5.20;3.20;;;;;;;;;;4798967;29;20031;-86
2023/09/21 03:15:50;;;;;;;5.75;3.47;;;;;;;;;;4807408;29;20059;-83
2023/09/21 03:18:16;;;;;;;6.85;3.40;;;;;;;;;;4809112;29;20121;-83
2023/09/21 03:20:43;;;;;;;7.93;3.30;;;;;;;;;;4808936;29;20030;-82
2023/09/21 03:23:30;;;;;;;7.00;3.30;;;;;;;;;;4808215;29;20069;-82
2023/09/21 03:25:57;;;;;;;7.63;3.28;;;;;;;;;;4808815;29;20099;-83
2023/09/21 03:28:24;;;;;;;7.20;3.35;;;;;;;;;;4805334;29;20045;-81
2023/09/21 03:30:51;;;;;;;6.28;3.22;;;;;;;;;;4805920;29;20050;-82
2023/09/21 03:33:19;;;;;;;6.65;3.25;;;;;;;;;;4804760;29;20046;-79
2023/09/21 03:35:45;;;;;;;6.65;3.15;;;;;;;;;;4805702;29;20058;-83
2023/09/21 03:38:12;;;;;;;6.65;3.40;;;;;;;;;;4806494;29;20107;-82
2023/09/21 03:40:40;;;;;;;7.40;3.72;;;;;;;;;;4808427;29;20062;-82
2023/09/21 03:43:13;;;;;;;5.18;3.03;;;;;;;;;;4808505;29;20138;-83
2023/09/21 03:45:41;;;;;;;7.70;3.50;;;;;;;;;;4808764;29;20026;-82
2023/09/21 03:48:08;;;;;;;7.80;3.13;;;;;;;;;;4800760;29;20046;-82
2023/09/21 03:50:34;;;;;;;9.82;3.17;;;;;;;;;;4808274;29;20521;-81
2023/09/21 03:53:04;;;;;;;5.95;3.33;;;;;;;;;;4809159;29;20031;-83
2023/09/21 03:55:30;;;;;;;6.20;3.17;;;;;;;;;;4807215;29;20023;-82
2023/09/21 03:57:56;;;;;;;7.05;3.38;;;;;;;;;;4808258;29;20166;-82
2023/09/21 04:03:06;;;;;;;4.80;3.08;;;;;;;;;;4807353;29;20035;-83
2023/09/21 04:05:35;;;;;;;8.63;3.05;;;;;;;;;;4806284;29;20088;-82
2023/09/21 04:08:01;;;;;;;7.53;3.10;;;;;;;;;;4807373;29;20507;-83
2023/09/21 04:10:28;;;;;;;5.70;3.05;;;;;;;;;;4807615;29;20070;-84
2023/09/21 04:12:56;;;;;;;7.63;3.55;;;;;;;;;;4806381;29;20038;-81
2023/09/21 04:15:26;;;;;;;6.75;3.15;;;;;;;;;;4807295;29;20039;-81
2023/09/21 04:17:52;;;;;;;7.30;3.22;;;;;;;;;;4806286;29;20378;-81
2023/09/21 04:20:19;;;;;;;8.23;3.40;;;;;;;;;;4807884;29;20060;-81
2023/09/21 04:22:49;;;;;;;6.97;3.30;;;;;;;;;;4806705;29;20050;-85
2023/09/21 04:25:16;;;;;;;7.30;3.47;;;;;;;;;;4806837;29;20060;-81
2023/09/21 04:27:43;;;;;;;6.90;3.40;;;;;;;;;;4807147;29;20053;-81
2023/09/21 04:30:14;;;;;;;5.63;3.08;;;;;;;;;;4808195;29;20030;-84
2023/09/21 04:32:47;;;;;;;7.78;3.95;;;;;;;;;;4807484;29;20506;-83
2023/09/21 04:35:14;;;;;;;5.88;3.30;;;;;;;;;;4806560;29;20122;-84
2023/09/21 04:37:40;;;;;;;6.35;3.20;;;;;;;;;;4807476;29;20035;-82
2023/09/21 04:40:10;;;;;;;7.15;3.70;;;;;;;;;;4806560;29;20034;-82
2023/09/21 04:42:38;;;;;;;6.68;3.80;;;;;;;;;;4807865;29;20042;-82
2023/09/21 04:45:11;;;;;;;5.70;3.63;;;;;;;;;;4799092;29;20023;-83
2023/09/21 04:47:38;;;;;;;7.18;3.38;;;;;;;;;;4802726;29;20924;-82
2023/09/21 04:50:05;;;;;;;6.82;3.83;;;;;;;;;;4806159;29;20149;-84
2023/09/21 04:52:34;;;;;;;7.60;3.50;;;;;;;;;;4801474;29;20051;-82
2023/09/21 04:55:01;;;;;;;8.80;3.22;;;;;;;;;;4796831;29;20037;-83
2023/09/21 04:57:27;;;;;;;6.57;4.20;;;;;;;;;;4805200;29;20085;-82
2023/09/21 04:59:55;;;;;;;6.78;3.17;;;;;;;;;;4801557;29;20087;-83
2023/09/21 05:02:21;;;;;;;7.20;3.30;;;;;;;;;;4796628;29;20061;-82
2023/09/21 05:04:47;;;;;;;5.93;3.15;;;;;;;;;;4806901;29;20031;-81
2023/09/21 05:07:54;;;;;;;5.60;2.97;;;537.70;2406.40;;;;;;4796689;29;20031;-82
2023/09/21 05:10:20;;;;;;;6.95;3.35;;;537.60;2406.40;;;;;;4789018;30;20039;-82
2023/09/21 05:12:51;;;;;;;7.20;3.60;;;512.80;2380.80;;;;;;4800346;29;20064;-81
2023/09/21 05:15:17;;;;;;;6.35;3.28;;;512.90;2380.80;;;;;;4807032;29;20038;-81
2023/09/21 05:17:43;;;;;;;5.75;3.50;;;537.80;2406.40;;;;;;4818059;29;20055;-83
2023/09/21 05:20:09;;;;;;;7.22;3.50;;;537.70;2406.40;;;;;;4803399;29;20110;-81
2023/09/21 05:22:39;;;;;;;8.95;3.45;;;537.60;2406.40;;;;;;4803445;29;20037;-82
2023/09/21 05:25:07;;;;;;;6.43;3.50;;;537.90;2406.40;;;;;;4823712;29;20553;-82
2023/09/21 05:27:33;;;;;;;5.78;3.42;;;537.90;2406.40;;;;;;4806089;29;20042;-80
2023/09/21 05:30:01;;;;;;;6.43;3.42;;;537.90;2406.40;;;;;;4804895;29;20031;-83
2023/09/21 05:32:29;;;;;;;5.32;3.35;;;537.80;2406.40;;;;;;4804961;29;20093;-81
2023/09/21 05:34:56;;;;;;;6.13;3.47;;;537.80;2406.40;;;;;;4805162;29;20035;-83
2023/09/21 05:37:22;;;;;;;7.28;3.60;;;537.70;2406.40;;;;;;4805711;29;20078;-82
2023/09/21 05:39:49;;;;;;;6.88;3.50;;;537.60;2406.40;;;;;;4820982;29;20481;-82
2023/09/21 05:42:15;;;;;;;8.30;3.88;;;512.80;2380.80;;;;;;4804356;29;20070;-82
2023/09/21 05:44:43;;;;;;;7.18;4.40;;;512.80;2380.80;;;;;;4806571;29;20103;-82
2023/09/21 05:47:09;;;;;;;6.95;4.38;;;512.60;2380.80;;;;;;4802796;29;20070;-82
2023/09/21 05:49:36;;;;;;;7.13;4.07;;;512.70;2380.80;;;;;;4805757;29;20040;-83
2023/09/21 05:52:08;;;;;;;8.73;4.30;;;512.50;2380.80;;;;;;4835510;29;20121;-82
2023/09/21 05:54:35;;;;;;;8.50;4.40;;;512.50;2380.80;;;;;;4805998;29;20037;-82
2023/09/21 05:57:03;;;;;;;7.07;4.47;;;512.40;2380.80;;;;;;4806232;29;20041;-80
2023/09/21 05:59:31;;;;;;;8.73;5.10;;;512.30;2380.80;;;;;;4807153;29;20426;-82
2023/09/21 06:01:59;;;;;;;9.65;4.65;;;512.50;2380.80;;;;;;4806241;29;20038;-81
2023/09/21 06:04:26;;;;;;;9.07;4.95;;;512.50;2380.80;;;;;;4805329;29;20030;-81
2023/09/21 06:06:54;;;;;;;11.85;4.90;;;512.50;2380.80;;;;;;4805644;29;20042;-80
2023/09/21 06:09:22;;;;;;;11.55;5.18;;;512.70;2380.80;;;;;;4801469;29;20092;-81
2023/09/21 06:11:48;;;;;;;8.95;5.10;;;512.80;2380.80;;;;;;4791736;29;20153;-80
2023/09/21 06:14:15;;;;;;;9.40;4.93;;;512.90;2380.80;;;;;;4789633;29;20040;-81
2023/09/21 06:16:43;;;;;;;10.20;5.38;;;512.90;2380.80;;;;;;4800521;29;20501;-81
2023/09/21 06:19:11;;;;;;;7.57;5.00;;;512.90;2380.80;;;;;;4805328;29;20113;-81
2023/09/21 06:21:41;;;;;;;9.50;5.32;;;537.60;2406.40;;;;;;4808111;29;20046;-82
2023/09/21 06:24:08;;;;;;;9.00;5.68;;;537.70;2406.40;;;;;;4808592;29;20042;-82
2023/09/21 06:26:35;;;;;;;12.98;5.70;;;537.70;2406.40;;;;;;4809188;29;20502;-79
2023/09/21 06:29:01;;;;;;;7.55;5.25;;;537.70;2406.40;;;;;;4808043;29;20031;-81
2023/09/21 06:31:27;;;;;;;10.98;5.60;;;537.80;2406.40;;;;;;4807455;29;20033;-81
2023/09/21 06:33:58;;;;;;;10.32;6.00;;;538.20;2406.40;;;;;;4806840;29;20043;-81
2023/09/21 06:36:28;;;;;;;11.00;6.00;;;538.00;2406.40;;;;;;4806585;29;20050;-81
2023/09/21 06:39:00;;;;;;;10.73;6.07;;;538.20;2406.40;;;;;;4804130;29;20113;-81
2023/09/21 06:41:28;;;;;;;9.30;5.85;;;538.20;2406.40;;;;;;4804110;29;20041;-81
2023/09/21 06:43:55;;;;;;;10.93;5.90;;;538.20;2406.40;;;;;;4803356;29;20031;-80
2023/09/21 06:46:20;;;;;;;10.73;6.10;;;538.30;2406.40;;;;;;4806824;29;20038;-79
2023/09/21 06:48:46;;;;;;;12.10;6.53;;;538.40;2406.40;;;;;;4807764;29;21019;-80
2023/09/21 06:51:12;;;;;;;9.38;5.80;;;538.50;2406.40;;;;;;4806774;29;20031;-79
2023/09/21 06:53:44;;;;;;;11.30;6.50;;;563.20;2432.00;;;;;;4806912;29;20027;-81
2023/09/21 06:56:11;;;;;;;10.02;6.07;;;538.50;2406.40;;;;;;4803533;29;20440;-79
2023/09/21 06:58:37;;;;;;;12.45;6.15;;;563.20;2432.00;;;;;;4807183;29;20062;-81
2023/09/21 07:01:04;;;;;;;8.32;5.40;;;563.30;2432.00;;;;;;4809030;29;20481;-79
2023/09/21 07:03:32;;;;;;;11.15;5.90;;;563.40;2432.00;;;;;;4806494;29;20444;-80
2023/09/21 07:05:58;;;;;;;9.95;6.10;;;563.40;2432.00;;;;;;4807661;29;20027;-79
2023/09/21 07:08:23;;;;;;;9.82;5.80;;;563.40;2432.00;;;;;;4806431;29;20034;-80
2023/09/21 07:10:49;;;;;;;12.15;6.22;;;563.40;2432.00;;;;;;4808688;29;20031;-81
2023/09/21 07:13:18;;;;;;;10.57;6.05;;;563.50;2432.00;;;;;;4807071;29;20117;-80
2023/09/21 07:15:44;;;;;;;11.27;6.13;;;563.50;2432.00;;;;;;4807636;29;20031;-82
2023/09/21 07:18:11;;;;;;;9.68;5.93;;;563.50;2432.00;;;;;;4808005;29;20039;-82
2023/09/21 07:20:37;;;;;;;9.48;6.30;;;563.60;2432.00;;;;;;4819760;29;20099;-82
2023/09/21 07:23:03;;;;;;;12.32;6.63;;;563.70;2432.00;;;;;;4808041;29;20113;-83
2023/09/21 07:25:29;;;;;;;11.95;6.22;;;563.60;2432.00;;;;;;4808271;29;20133;-83
2023/09/21 07:27:56;;;;;;;10.32;6.47;;;563.80;2432.00;;;;;;4808722;29;20039;-83
2023/09/21 07:30:22;;;;;;;11.00;6.57;;;;;;;;;;4808376;29;20092;-82
2023/09/21 07:32:49;;;;;;;11.15;6.63;;;588.80;2432.00;;;;;;4808038;29;20102;-82
2023/09/21 07:35:15;;;;;;;9.02;6.70;;;564.00;2432.00;;;;;;4807429;29;20034;-80
2023/09/21 07:37:46;;;;;;;17.05;7.32;;;564.10;2432.00;;;;;;4804650;29;20058;-80
2023/09/21 07:40:13;;;;;;;11.60;6.50;;;564.10;2432.00;;;;;;4805260;29;20893;-81
2023/09/21 07:42:42;;;;;;;11.05;6.70;;;589.00;2432.00;;;;;;4805920;29;20501;-79
2023/09/21 07:45:11;;;;;;;13.32;6.68;;;589.00;2432.00;;;;;;4806507;29;20468;-79
2023/09/21 07:47:39;;;;;;;12.10;6.45;;;589.10;2432.00;;;;;;4803722;29;20068;-79
2023/09/21 07:50:06;;;;;;;11.38;6.88;;;589.20;2432.00;;;;;;4805304;29;20031;-83
2023/09/21 07:52:56;;;;;;;10.98;7.00;;;589.20;2432.00;;;;;;4806276;29;20497;-82
2023/09/21 07:55:22;;;;;;;9.43;6.90;;;589.40;2432.00;;;;;;4806967;29;20121;-79
2023/09/21 07:57:48;;;;;;;11.20;6.70;;;589.50;2432.00;;;;;;4804490;29;20039;-83
2023/09/21 08:00:16;;;;;;;9.45;6.45;;;589.50;2432.00;;;;;;4806968;29;20047;-82
2023/09/21 08:02:42;;;;;;;11.57;7.10;;;589.60;2432.00;;;;;;4807131;29;20030;-82
2023/09/21 08:05:09;;;;;;;11.70;6.63;;;589.60;2432.00;;;;;;4805128;29;20061;-79
2023/09/21 08:07:36;;;;;;;8.45;6.35;;;;;;;;;;4806171;29;20030;-81
2023/09/21 08:10:06;;;;;;;11.10;6.57;;;;;;;;;;4805892;29;20031;-80
2023/09/21 08:12:38;;;;;;;12.02;6.40;;;;;;;;;;4804909;29;20117;-80
2023/09/21 08:15:06;;;;;;;12.35;6.40;;;615.10;2432.00;;;;;;4806925;29;20084;-80
2023/09/21 08:17:32;;;;;;;11.60;6.22;;;615.20;2432.00;;;;;;4804357;29;20446;-79
2023/09/21 08:19:59;;;;;;;10.32;6.25;;;640.10;2432.00;;;;;;4805142;29;20034;-80
2023/09/21 08:22:32;;;;;;;12.43;6.25;;;640.50;2432.00;;;;;;4806038;29;20366;-79
2023/09/21 08:24:58;;;;;;;10.70;6.25;;;640.60;2432.00;;;;;;4804510;29;20066;-80
2023/09/21 08:27:25;;;;;;;10.80;6.50;;;640.80;2432.00;;;;;;4804876;29;20057;-78
2023/09/21 08:29:51;;;;;;;9.98;6.13;;;665.70;2432.00;;;;;;4804603;29;20032;-80
2023/09/21 08:32:17;;;;;;;11.00;6.10;;;666.30;2432.00;;;;;;4819199;29;20386;-80
2023/09/21 08:34:48;;;;;;;13.20;6.38;;;;;;;;;;4804471;29;20030;-79
2023/09/21 08:37:14;;;;;;;11.50;5.80;;;691.50;2432.00;;;;;;4803003;29;20042;-79
2023/09/21 08:39:41;;;;;;;11.07;5.22;;;;;;;;;;4805349;29;20042;-79
2023/09/21 08:42:10;;;;;;;9.07;5.75;;;;;;;;;;4802764;29;20039;-80
2023/09/21 08:44:43;;;;;;;10.82;5.30;;;742.50;2432.00;;;;;;4805480;29;20034;-80
2023/09/21 08:47:14;;;;;;;12.50;5.55;;;742.50;2329.60;;;;;;4803648;29;20046;-80
2023/09/21 08:49:46;;;;;;;9.98;5.28;;;743.20;2252.80;;;;;;4807289;29;20529;-81
2023/09/21 08:52:13;;;;;;;7.57;4.57;;;768.20;2124.80;;;;;;4805698;29;20147;-80
2023/09/21 08:54:41;;;;;;;8.82;4.70;;;;;;;;;;4807405;29;20552;-80
2023/09/21 08:57:11;;;;;;;10.77;5.80;;;;;;;;;;4806724;29;20038;-79
2023/09/21 08:59:44;;;;;;;9.15;5.43;;;768.00;2022.40;;;;;;4807750;29;20031;-80
2023/09/21 09:02:12;;;;;;;9.52;5.35;;;742.90;2073.60;;;;;;4807157;29;20127;-80
2023/09/21 09:04:43;;;;;;;11.43;5.78;;;742.50;2073.60;;;;;;4803955;29;20027;-80
2023/09/21 09:07:11;;;;;;;11.60;6.60;;;717.40;2073.60;;;;;;4801695;29;20099;-80
2023/09/21 09:09:55;;;;;;;8.77;5.53;;;;;;;;;;4805513;29;20045;-78
2023/09/21 09:12:24;;;;;;;13.50;6.15;;;716.80;2227.20;;;;;;4801557;29;20045;-79
2023/09/21 09:14:53;;;;;;;12.57;6.15;;;716.90;2227.20;;;;;;4806513;29;20042;-79
2023/09/21 09:17:19;;;;;;;10.02;5.18;;;717.30;2201.60;;;;;;4799378;29;20033;-79
2023/09/21 09:19:47;;;;;;;12.00;6.30;;;717.30;2201.60;;;;;;4800252;29;20039;-80
2023/09/21 09:22:15;;;;;;;12.50;5.93;;;717.30;2201.60;;;;;;4807232;29;20039;-80
2023/09/21 09:24:41;;;;;;;8.30;5.00;;;717.70;2150.40;;;;;;4789382;29;20041;-79
2023/09/21 09:27:08;;;;;;;12.45;5.10;;;743.00;2150.40;;;;;;4788364;30;20508;-79
2023/09/21 09:29:50;;;;;;;8.80;4.90;;;742.70;2099.20;;;;;;4798331;29;20034;-78
2023/09/21 09:32:18;;;;;;;9.35;4.50;;;743.00;2073.60;;;;;;4806070;29;20115;-78
2023/09/21 09:34:46;;;;;;;8.07;3.75;;;743.30;2022.40;;;;;;4791643;29;20040;-78
2023/09/21 09:37:17;;;;;;;8.35;4.70;;;768.50;1894.40;;;;;;4799266;29;20465;-79
2023/09/21 09:39:45;;;;;;;7.32;3.97;;;768.80;1843.20;;;;;;4804027;29;20033;-79
2023/09/21 09:42:15;;;;;;;8.80;5.30;;;768.50;1792.00;;;;;;4790244;29;20118;-79
2023/09/21 09:44:46;;;;;;;7.32;3.65;;;768.40;1817.60;;;;;;4801950;29;20043;-78
2023/09/21 09:47:16;;;;;;;5.78;3.00;;;;;;;;;;4809291;29;20485;-80
2023/09/21 09:49:49;;;;;;;7.53;2.90;;;768.70;1664.00;;;;;;4808659;29;20035;-79
2023/09/21 09:52:18;;;;;;;9.18;3.60;;;794.10;1715.20;;;;;;4808762;29;20027;-77
2023/09/21 09:54:48;;;;;;;10.05;4.38;;;768.80;1740.80;;;;;;4807232;29;20042;-78
2023/09/21 09:57:16;;;;;;;10.93;5.00;;;768.80;1766.40;;;;;;4808555;29;20087;-79
2023/09/21 09:59:44;;;;;;;7.78;3.28;;;793.70;1792.00;;;;;;4809045;29;20031;-78
2023/09/21 10:02:14;;;;;;;10.70;6.22;;;768.60;1766.40;;;;;;4808763;29;20046;-79
2023/09/21 10:04:41;;;;;;;7.35;4.07;;;768.10;1843.20;;;;;;4802105;29;20032;-78
2023/09/21 10:07:08;;;;;;;16.00;6.60;;;768.20;1843.20;;;;;;4796140;29;20473;-77
2023/09/21 10:09:34;;;;;;;12.30;4.93;;;768.00;1792.00;;;;;;4803090;29;20129;-79
2023/09/21 10:12:05;;;;;;;9.15;3.15;;;768.10;1766.40;;;;;;4798560;29;20038;-78
2023/09/21 10:14:36;;;;;;;14.73;6.28;;;743.20;1766.40;;;;;;4803315;29;20027;-79
2023/09/21 10:17:05;;;;;;;12.15;4.22;;;742.90;1689.60;;;;;;4797468;29;20050;-81
2023/09/21 10:19:38;;;;;;;15.02;4.55;;;768.00;1740.80;;;;;;4804343;29;20027;-78
2023/09/21 10:22:23;;;;;;;11.77;5.00;;;768.30;1766.40;;;;;;4806626;29;20039;-78
2023/09/21 10:24:58;;;;;;;7.68;3.08;;;768.80;1689.60;;;;;;4803397;29;20035;-79
2023/09/21 10:27:27;;;;;;;9.55;4.20;;;794.10;1664.00;;;;;;4806615;29;20030;-79
2023/09/21 10:30:00;;;;;;;8.15;2.90;;;;;;;;;;4796988;29;20073;-80
2023/09/21 10:32:44;;;;;;;8.27;3.13;;;819.30;1638.40;;;;;;4791313;29;20050;-79
2023/09/21 10:35:45;;;;;;;8.75;3.80;;;819.20;1612.80;;;;;;4809440;29;20046;-79
2023/09/21 10:38:15;;;;;;;12.07;4.53;;;794.30;1638.40;;;;;;4804608;29;20573;-80
2023/09/21 10:40:41;;;;;;;12.30;4.80;;;;;;;;;;4816771;29;20062;-79
2023/09/21 10:43:26;;;;;;;6.40;2.70;;;;;;;;;;4800663;29;20131;-78
2023/09/21 10:45:58;;;;;;;6.80;3.15;;;820.00;1484.80;;;;;;4814148;29;20082;-79
2023/09/21 10:48:25;;;;;;;7.40;2.78;;;819.60;1510.40;;;;;;4808538;29;20046;-79
2023/09/21 10:50:51;;;;;;;7.40;2.50;;;794.40;1536.00;;;;;;4805093;29;20031;-78
2023/09/21 10:53:17;;;;;;;8.40;2.53;;;819.50;1484.80;;;;;;4803992;29;20525;-78
2023/09/21 10:55:43;;;;;;;6.03;2.35;;;819.90;1484.80;;;;;;4804003;29;20031;-79
2023/09/21 10:58:11;;;;;;;7.82;3.10;;;;;;;;;;4804134;29;20046;-79
2023/09/21 11:00:39;;;;;;;6.47;2.80;;;845.60;1484.80;;;;;;4803209;29;20026;-80
2023/09/21 11:03:05;;;;;;;6.72;2.38;;;845.40;1382.40;;;;;;4788394;29;20042;-80
2023/09/21 11:05:32;;;;;;;4.93;1.88;;;820.00;1331.20;;;;;;4787265;29;20029;-80
2023/09/21 11:07:59;;;;;;;6.53;2.28;;;819.70;1356.80;;;;;;4801665;29;20032;-80
2023/09/21 11:10:25;;;;;;;6.43;2.20;;;820.10;1331.20;;;;;;4804122;29;20188;-80
2023/09/21 11:12:51;;;;;;;9.60;3.45;;;820.00;1331.20;;;;;;4804259;29;20109;-79
2023/09/21 11:15:18;;;;;;;7.65;2.53;;;845.00;1331.20;;;;;;4803241;29;20035;-80
2023/09/21 11:17:45;;;;;;;13.43;4.78;;;819.80;1331.20;;;;;;4802014;29;20070;-80
2023/09/21 11:20:14;;;;;;;16.05;7.20;;;844.80;1305.60;;;;;;4803405;29;20023;-81
2023/09/21 11:22:42;;;;;;;5.07;2.17;;;820.10;1305.60;;;;;;4788013;29;20031;-78
2023/09/21 11:25:11;;;;;;;5.60;2.53;;;820.00;1331.20;;;;;;4787212;29;20144;-80
2023/09/21 11:27:39;;;;;;;7.80;2.60;;;844.80;1331.20;;;;;;4804099;29;20088;-80
2023/09/21 11:30:07;;;;;;;6.82;2.55;;;820.00;1331.20;;;;;;4803858;29;20038;-79
2023/09/21 11:32:41;;;;;;;9.63;4.28;;;819.90;1331.20;;;;;;4803225;29;20490;-79
2023/09/21 11:35:08;;;;;;;8.48;3.10;;;820.10;1331.20;;;;;;4801711;29;20116;-80
2023/09/21 11:37:34;;;;;;;6.05;2.03;;;819.60;1356.80;;;;;;4804303;29;20051;-77
2023/09/21 11:40:00;;;;;;;8.18;3.30;;;819.20;1382.40;;;;;;4787682;29;20070;-78
2023/09/21 11:42:26;;;;;;;6.72;2.47;;;819.40;1356.80;;;;;;4800718;29;20142;-81
2023/09/21 11:44:52;;;;;;;6.13;2.30;;;794.20;1408.00;;;;;;4799555;29;20035;-79
2023/09/21 11:47:22;;;;;;;6.88;2.70;;;794.50;1382.40;;;;;;4803890;29;20047;-80
2023/09/21 11:49:55;;;;;;;10.32;3.90;;;794.50;1382.40;;;;;;4800367;29;20102;-78
2023/09/21 11:52:23;;;;;;;8.52;3.25;;;794.50;1408.00;;;;;;4800654;29;20109;-78
2023/09/21 11:54:49;;;;;;;10.27;4.18;;;819.20;1382.40;;;;;;4786342;29;20569;-79
2023/09/21 11:57:14;;;;;;;8.68;3.35;;;819.80;1331.20;;;;;;4801874;29;20137;-80
2023/09/21 11:59:42;;;;;;;7.43;2.90;;;844.90;1331.20;;;;;;4801108;29;20043;-79
2023/09/21 12:02:14;;;;;;;8.77;2.78;;;844.80;1305.60;;;;;;4802931;29;20042;-78
2023/09/21 12:04:43;;;;;;;8.40;3.78;;;820.00;1305.60;;;;;;4799274;29;20390;-79
2023/09/21 12:07:12;;;;;;;9.30;4.00;;;845.30;1305.60;;;;;;4798128;29;20066;-81
2023/09/21 12:09:43;;;;;;;8.85;4.38;;;845.20;1254.40;;;;;;4802387;29;20034;-79
2023/09/21 12:12:12;;;;;;;5.38;1.90;;;845.30;1254.40;;;;;;4798758;29;20576;-80
2023/09/21 12:14:40;;;;;;;8.27;2.20;;;845.10;1280.00;;;;;;4799220;29;20050;-80
2023/09/21 12:17:12;;;;;;;7.43;3.25;;;820.00;1254.40;;;;;;4797744;29;20593;-82
2023/09/21 12:19:39;;;;;;;12.75;4.10;;;819.70;1280.00;;;;;;4784065;29;20054;-80
2023/09/21 12:22:08;;;;;;;18.50;6.28;;;819.30;1305.60;;;;;;4772601;29;20724;-81
2023/09/21 12:24:34;;;;;;;13.23;3.78;;;819.30;1280.00;;;;;;4804588;29;20130;-81
2023/09/21 12:27:03;;;;;;;7.20;2.00;;;819.20;1305.60;;;;;;4804891;29;20118;-80
2023/09/21 12:29:29;;;;;;;7.05;2.10;;;819.20;1331.20;;;;;;4803102;29;20140;-80
2023/09/21 12:31:58;;;;;;;7.05;2.08;;;794.30;1356.80;;;;;;4803126;29;20118;-80
2023/09/21 12:34:25;;;;;;;6.35;2.40;;;794.20;1356.80;;;;;;4803977;29;20073;-80
2023/09/21 12:36:51;;;;;;;7.78;2.10;;;794.00;1356.80;;;;;;4803151;29;20055;-80
2023/09/21 12:39:18;;;;;;;8.43;2.72;;;794.00;1356.80;;;;;;4803212;29;20019;-80
2023/09/21 12:41:45;;;;;;;6.20;2.00;;;794.40;1331.20;;;;;;4802745;29;20046;-78
2023/09/21 12:44:11;;;;;;;7.35;2.22;;;794.30;1331.20;;;;;;4804228;29;20031;-79
2023/09/21 12:46:37;;;;;;;10.60;3.00;;;794.00;1356.80;;;;;;4803075;29;20084;-80
2023/09/21 12:49:04;;;;;;;7.85;2.65;;;794.10;1356.80;;;;;;4802064;29;20060;-81
2023/09/21 12:51:32;;;;;;;4.80;2.33;;;794.40;1356.80;;;;;;4801373;29;20038;-80
2023/09/21 12:53:59;;;;;;;6.07;2.00;;;793.90;1356.80;;;;;;4802826;29;20782;-79
2023/09/21 12:56:25;;;;;;;6.32;2.60;;;793.90;1356.80;;;;;;4800191;29;20126;-79
2023/09/21 12:58:51;;;;;;;5.50;2.20;;;793.60;1382.40;;;;;;4804819;29;20066;-80
2023/09/21 13:01:17;;;;;;;8.30;2.67;;;793.90;1356.80;;;;;;4799905;29;20498;-78
2023/09/21 13:03:47;;;;;;;5.78;2.35;;;793.70;1382.40;;;;;;4802116;29;20099;-80
2023/09/21 13:06:13;;;;;;;8.25;2.25;;;793.80;1382.40;;;;;;4799452;29;20039;-79
2023/09/21 13:08:39;;;;;;;8.98;2.60;;;793.90;1356.80;;;;;;4797439;29;20046;-78
2023/09/21 13:11:05;;;;;;;6.57;2.47;;;794.10;1382.40;;;;;;4803321;29;20039;-79
2023/09/21 13:13:35;;;;;;;4.95;2.20;;;793.90;1356.80;;;;;;4802870;29;20030;-78
2023/09/21 13:16:04;;;;;;;5.95;2.50;;;793.70;1356.80;;;;;;4801179;29;20217;-78
2023/09/21 13:18:35;;;;;;;8.65;2.30;;;793.70;1356.80;;;;;;4803575;29;20039;-80